createdAt,value
2023-08-17T00:00:24.833Z,287.85
2023-08-17T00:02:27.303Z,313.17
2023-08-17T00:04:29.863Z,288.55
2023-08-17T00:06:32.389Z,303.20
2023-08-17T00:08:34.845Z,329.45
2023-08-17T00:10:39.913Z,353.02
2023-08-17T00:12:42.372Z,319.35
2023-08-17T00:14:47.560Z,296.98
2023-08-17T00:16:51.446Z,337.25
2023-08-17T00:18:54.153Z,297.42
2023-08-17T00:20:57.452Z,288.30
2023-08-17T00:22:59.932Z,277.47
2023-08-17T00:25:02.427Z,206.27
2023-08-17T00:27:05.985Z,240.17
2023-08-17T00:29:08.619Z,299.85
2023-08-17T00:31:13.790Z,293.40
2023-08-17T00:33:16.466Z,231.38
2023-08-17T00:35:19.119Z,249.40
2023-08-17T00:37:21.571Z,314.63
2023-08-17T00:39:24.054Z,235.20
2023-08-17T00:41:26.647Z,267.75
2023-08-17T00:43:29.166Z,311.83
2023-08-17T00:45:32.403Z,258.15
2023-08-17T00:47:37.746Z,235.32
2023-08-17T00:49:40.226Z,215.98
2023-08-17T00:51:42.955Z,161.52
2023-08-17T00:53:46.073Z,180.35
2023-08-17T00:55:48.912Z,169.30
2023-08-17T00:57:52.106Z,151.95
2023-08-17T01:00:04.637Z,206.43
2023-08-17T01:02:09.231Z,190.87
2023-08-17T01:04:16.420Z,259.55
2023-08-17T01:06:20.645Z,274.38
2023-08-17T01:08:23.237Z,210.23
2023-08-17T01:10:31.630Z,239.77
2023-08-17T01:12:37.967Z,227.93
2023-08-17T01:14:52.035Z,227.50
2023-08-17T01:17:02.175Z,182.40
2023-08-17T01:19:09.069Z,193.77
2023-08-17T01:21:18.216Z,234.73
2023-08-17T01:23:24.012Z,204.57
2023-08-17T01:25:26.644Z,275.50
2023-08-17T01:27:41.678Z,267.77
2023-08-17T01:29:44.273Z,150.23
2023-08-17T01:31:55.266Z,255.15
2023-08-17T01:34:04.533Z,179.05
2023-08-17T01:36:14.398Z,243.90
2023-08-17T01:38:20.429Z,226.65
2023-08-17T01:40:27.096Z,191.82
2023-08-17T01:42:30.403Z,208.00
2023-08-17T01:44:33.022Z,174.53
2023-08-17T01:46:36.029Z,199.50
2023-08-17T01:48:38.584Z,228.18
2023-08-17T01:50:41.090Z,203.68
2023-08-17T01:52:43.643Z,166.70
2023-08-17T01:54:46.155Z,248.00
2023-08-17T01:56:51.537Z,240.13
2023-08-17T01:58:55.065Z,182.90
2023-08-17T02:00:58.925Z,270.83
2023-08-17T02:03:02.831Z,262.70
2023-08-17T02:05:06.271Z,324.60
2023-08-17T02:07:08.716Z,383.92
2023-08-17T02:09:11.221Z,279.73
2023-08-17T02:11:13.767Z,284.60
2023-08-17T02:13:19.785Z,319.00
2023-08-17T02:15:22.776Z,290.95
2023-08-17T02:17:25.613Z,306.73
2023-08-17T02:19:28.501Z,342.25
2023-08-17T02:21:30.984Z,393.00
2023-08-17T02:23:33.555Z,313.00
2023-08-17T02:25:39.448Z,408.83
2023-08-17T02:27:42.675Z,318.50
2023-08-17T02:29:49.044Z,338.35
2023-08-17T02:31:51.528Z,373.05
2023-08-17T02:33:54.444Z,362.90
2023-08-17T02:35:57.066Z,438.80
2023-08-17T02:37:59.692Z,382.02
2023-08-17T02:40:02.174Z,453.73
2023-08-17T02:42:05.220Z,376.63
2023-08-17T02:44:08.011Z,441.88
2023-08-17T02:46:13.574Z,387.02
2023-08-17T02:48:16.191Z,430.60
2023-08-17T02:50:18.910Z,425.48
2023-08-17T02:52:21.451Z,348.67
2023-08-17T02:54:23.917Z,401.25
2023-08-17T02:56:26.520Z,336.55
2023-08-17T02:58:29.218Z,392.02
2023-08-17T03:00:31.723Z,394.88
2023-08-17T03:02:37.086Z,380.13
2023-08-17T03:04:39.644Z,443.65
2023-08-17T03:06:42.188Z,430.60
2023-08-17T03:08:44.658Z,442.50
2023-08-17T03:10:48.599Z,411.75
2023-08-17T03:12:51.088Z,370.10
2023-08-17T03:14:53.861Z,406.10
2023-08-17T03:16:56.669Z,354.67
2023-08-17T03:19:01.764Z,399.77
2023-08-17T03:21:04.389Z,470.08
2023-08-17T03:23:08.471Z,435.40
2023-08-17T03:25:11.387Z,434.00
2023-08-17T03:27:14.557Z,408.13
2023-08-17T03:29:17.794Z,424.08
2023-08-17T03:31:22.349Z,383.70
2023-08-17T03:33:24.927Z,370.60
2023-08-17T03:35:32.832Z,327.50
2023-08-17T03:37:35.462Z,408.52
2023-08-17T03:39:38.015Z,332.55
2023-08-17T03:41:40.451Z,308.63
2023-08-17T03:43:43.042Z,431.90
2023-08-17T03:45:45.619Z,420.83
2023-08-17T03:47:48.158Z,442.38
2023-08-17T03:49:50.680Z,430.75
2023-08-17T03:51:55.766Z,371.00
2023-08-17T03:53:58.425Z,397.98
2023-08-17T03:56:00.890Z,430.85
2023-08-17T03:58:03.650Z,413.05
2023-08-17T04:00:08.172Z,375.83
2023-08-17T04:02:16.158Z,398.55
2023-08-17T04:04:19.211Z,405.70
2023-08-17T04:06:21.736Z,354.38
2023-08-17T04:08:27.706Z,420.77
2023-08-17T04:10:30.774Z,394.95
2023-08-17T04:12:33.387Z,324.70
2023-08-17T04:14:35.901Z,325.15
2023-08-17T04:16:38.535Z,386.50
2023-08-17T04:18:41.073Z,396.00
2023-08-17T04:20:43.584Z,325.25
2023-08-17T04:22:46.158Z,377.50
2023-08-17T04:24:51.445Z,269.98
2023-08-17T04:26:54.287Z,365.40
2023-08-17T04:28:56.820Z,311.98
2023-08-17T04:31:00.049Z,381.02
2023-08-17T04:33:05.501Z,314.70
2023-08-17T04:35:08.750Z,296.27
2023-08-17T04:37:11.276Z,368.60
2023-08-17T04:39:13.865Z,374.13
2023-08-17T04:41:20.723Z,366.23
2023-08-17T04:43:23.813Z,332.70
2023-08-17T04:45:26.295Z,259.05
2023-08-17T04:47:29.893Z,352.95
2023-08-17T04:49:32.699Z,263.63
2023-08-17T04:51:36.402Z,265.90
2023-08-17T04:53:38.960Z,285.67
2023-08-17T04:55:41.467Z,245.57
2023-08-17T04:57:46.486Z,266.33
2023-08-17T04:59:50.032Z,258.02
2023-08-17T05:01:55.686Z,317.63
2023-08-17T05:03:58.473Z,349.88
2023-08-17T05:06:01.069Z,334.52
2023-08-17T05:08:04.190Z,344.45
2023-08-17T05:10:07.771Z,345.58
2023-08-17T05:12:14.649Z,290.52
2023-08-17T05:14:19.790Z,342.13
2023-08-17T05:16:22.296Z,369.63
2023-08-17T05:18:24.898Z,389.42
2023-08-17T05:20:27.487Z,420.30
2023-08-17T05:22:30.107Z,287.25
2023-08-17T05:24:32.565Z,348.27
2023-08-17T05:26:35.342Z,404.08
2023-08-17T05:28:38.080Z,429.85
2023-08-17T05:30:43.502Z,354.83
2023-08-17T05:32:46.922Z,441.63
2023-08-17T05:34:49.594Z,402.48
2023-08-17T05:36:52.078Z,437.75
2023-08-17T05:38:54.514Z,388.38
2023-08-17T05:40:57.828Z,409.83
2023-08-17T05:43:00.374Z,397.97
2023-08-17T05:45:03.010Z,403.35
2023-08-17T05:47:08.376Z,409.92
2023-08-17T05:49:10.935Z,392.15
2023-08-17T05:51:13.422Z,348.05
2023-08-17T05:53:16.015Z,365.52
2023-08-17T05:55:18.628Z,380.00
2023-08-17T05:57:21.073Z,378.08
2023-08-17T05:59:23.581Z,348.92
2023-08-17T06:01:26.120Z,386.23
2023-08-17T06:03:31.315Z,385.70
2023-08-17T06:05:33.782Z,389.38
2023-08-17T06:07:36.283Z,345.63
2023-08-17T06:09:38.825Z,342.77
2023-08-17T06:11:41.417Z,384.33
2023-08-17T06:13:43.952Z,371.10
2023-08-17T06:15:46.447Z,330.85
2023-08-17T06:17:51.364Z,352.73
2023-08-17T06:19:56.527Z,324.65
2023-08-17T06:21:59.519Z,279.55
2023-08-17T06:24:02.033Z,295.52
2023-08-17T06:26:04.623Z,335.08
2023-08-17T06:28:07.940Z,205.70
2023-08-17T06:30:12.147Z,238.32
2023-08-17T06:34:17.737Z,134.75
2023-08-17T06:36:22.826Z,101.00
2023-08-17T06:38:25.309Z,219.73
2023-08-17T06:40:27.864Z,156.30
2023-08-17T06:42:30.374Z,116.50
2023-08-17T06:44:33.139Z,172.40
2023-08-17T06:46:35.703Z,166.02
2023-08-17T06:48:38.306Z,144.90
2023-08-17T06:50:40.982Z,122.25
2023-08-17T06:52:46.056Z,122.22
2023-08-17T06:54:48.524Z,212.27
2023-08-17T06:56:51.136Z,181.02
2023-08-17T06:58:54.112Z,173.20
2023-08-17T07:00:56.998Z,249.98
2023-08-17T07:03:01.015Z,198.90
2023-08-17T07:05:05.273Z,153.85
2023-08-17T07:07:07.781Z,120.65
2023-08-17T07:09:13.738Z,148.18
2023-08-17T07:11:16.618Z,243.95
2023-08-17T07:13:19.520Z,124.47
2023-08-17T07:15:22.043Z,148.77
2023-08-17T07:17:24.891Z,115.47
2023-08-17T07:19:46.176Z,224.18
2023-08-17T07:21:50.064Z,208.38
2023-08-17T07:23:52.762Z,121.18
2023-08-17T07:25:57.782Z,125.18
2023-08-17T07:28:00.373Z,130.60
2023-08-17T07:30:02.926Z,147.38
2023-08-17T07:32:06.048Z,158.82
2023-08-17T07:34:09.181Z,335.65
2023-08-17T07:36:12.472Z,262.85
2023-08-17T07:38:14.965Z,330.65
2023-08-17T07:40:17.682Z,264.65
2023-08-17T07:42:24.761Z,294.48
2023-08-17T07:44:30.147Z,174.73
2023-08-17T07:46:32.694Z,230.02
2023-08-17T07:48:35.266Z,256.33
2023-08-17T07:50:37.816Z,322.63
2023-08-17T07:52:43.141Z,268.65
2023-08-17T07:54:47.222Z,294.92
2023-08-17T07:58:54.927Z,270.55
2023-08-17T08:00:57.538Z,244.95
2023-08-17T08:03:00.156Z,260.80
2023-08-17T08:05:02.763Z,274.40
2023-08-17T08:07:05.533Z,340.60
2023-08-17T08:09:08.409Z,298.08
2023-08-17T08:11:11.486Z,308.80
2023-08-17T08:13:15.442Z,293.83
2023-08-17T08:17:23.182Z,259.42
2023-08-17T08:19:25.758Z,317.50
2023-08-17T08:21:29.678Z,264.13
2023-08-17T08:23:32.319Z,201.75
2023-08-17T08:25:34.893Z,175.90
2023-08-17T08:27:38.045Z,132.18
2023-08-17T08:29:41.173Z,235.20
2023-08-17T08:31:46.427Z,244.63
2023-08-17T08:33:48.958Z,329.58
2023-08-17T08:35:51.576Z,266.55
2023-08-17T08:37:57.107Z,281.83
2023-08-17T08:39:59.747Z,262.33
2023-08-17T08:42:02.305Z,311.17
2023-08-17T08:44:05.560Z,306.20
2023-08-17T08:46:08.153Z,371.38
2023-08-17T08:48:13.415Z,298.45
2023-08-17T08:50:19.618Z,240.05
2023-08-17T08:52:28.860Z,294.92
2023-08-17T08:56:47.771Z,284.38
2023-08-17T08:58:54.579Z,290.75
2023-08-17T09:00:59.990Z,297.90
2023-08-17T09:03:04.990Z,271.83
2023-08-17T09:05:11.941Z,238.25
2023-08-17T09:07:15.720Z,220.25
2023-08-17T09:09:19.222Z,226.10
2023-08-17T09:11:21.747Z,162.30
2023-08-17T09:13:24.339Z,97.32
2023-08-17T09:15:26.774Z,226.80
2023-08-17T09:17:29.647Z,216.45
2023-08-17T09:19:33.585Z,235.45
2023-08-17T09:21:38.703Z,222.32
2023-08-17T09:23:41.452Z,101.82
2023-08-17T09:25:45.815Z,91.68
2023-08-17T09:27:48.322Z,54.20
2023-08-17T09:29:50.826Z,60.95
2023-08-17T09:31:53.350Z,50.25
2023-08-17T09:33:56.027Z,62.88
2023-08-17T09:36:00.435Z,79.57
2023-08-17T09:38:10.105Z,127.72
2023-08-17T09:40:13.048Z,60.38
2023-08-17T09:42:19.344Z,47.53
2023-08-17T09:44:21.881Z,49.70
2023-08-17T09:46:25.396Z,111.80
2023-08-17T09:48:32.987Z,136.30
2023-08-17T09:50:38.984Z,74.10
2023-08-17T09:52:41.766Z,41.70
2023-08-17T09:54:48.526Z,81.28
2023-08-17T09:56:52.750Z,61.95
2023-08-17T09:58:55.438Z,115.43
2023-08-17T10:00:59.327Z,130.52
2023-08-17T10:03:07.693Z,53.47
2023-08-17T10:05:13.694Z,53.30
2023-08-17T10:07:17.439Z,37.80
2023-08-17T10:09:26.693Z,75.32
2023-08-17T10:11:36.204Z,80.63
2023-08-17T10:13:43.952Z,49.33
2023-08-17T10:15:52.620Z,60.03
2023-08-17T10:18:03.484Z,76.80
2023-08-17T10:20:08.037Z,60.75
2023-08-17T10:22:19.198Z,42.22
2023-08-17T10:24:22.069Z,42.97
2023-08-17T10:26:26.335Z,81.30
2023-08-17T10:28:33.635Z,55.22
2023-08-17T10:30:36.460Z,63.67
2023-08-17T10:32:39.713Z,86.50
2023-08-17T10:34:43.222Z,63.78
2023-08-17T10:36:46.777Z,66.32
2023-08-17T10:39:19.246Z,63.70
2023-08-17T10:41:21.925Z,34.08
2023-08-17T10:43:33.528Z,44.75
2023-08-17T10:45:41.985Z,38.92
2023-08-17T10:47:44.524Z,48.15
2023-08-17T10:49:47.076Z,39.08
2023-08-17T10:52:03.193Z,45.83
2023-08-17T10:54:06.510Z,44.38
2023-08-17T10:56:10.379Z,36.55
2023-08-17T10:58:16.362Z,49.83
2023-08-17T11:00:33.250Z,46.88
2023-08-17T11:02:39.609Z,53.90
2023-08-17T11:04:51.630Z,54.08
2023-08-17T11:07:03.462Z,58.45
2023-08-17T11:09:09.007Z,59.90
2023-08-17T11:11:12.943Z,45.40
2023-08-17T11:13:15.692Z,61.85
2023-08-17T11:15:18.221Z,45.42
2023-08-17T11:17:22.270Z,110.55
2023-08-17T11:23:33.453Z,45.47
2023-08-17T11:25:36.578Z,63.20
2023-08-17T11:27:39.929Z,63.65
2023-08-17T11:29:44.910Z,104.85
2023-08-17T11:31:51.095Z,107.15
2023-08-17T11:33:56.314Z,130.77
2023-08-17T11:36:04.318Z,113.82
2023-08-17T11:38:09.091Z,99.40
2023-08-17T11:40:13.953Z,150.07
2023-08-17T11:44:24.326Z,122.50
2023-08-17T11:46:29.915Z,73.25
2023-08-17T11:50:40.255Z,142.93
2023-08-17T11:52:46.621Z,113.63
2023-08-17T11:54:52.394Z,122.72
2023-08-17T11:56:55.094Z,115.32
2023-08-17T11:58:57.620Z,137.55
2023-08-17T12:01:00.262Z,106.72
2023-08-17T12:03:03.939Z,97.72
2023-08-17T12:05:07.853Z,102.28
2023-08-17T12:07:10.441Z,88.07
2023-08-17T12:09:15.868Z,98.25
2023-08-17T12:11:21.628Z,98.25
2023-08-17T12:13:31.535Z,86.78
2023-08-17T12:15:34.566Z,95.07
2023-08-17T12:17:38.237Z,66.80
2023-08-17T12:19:41.039Z,92.95
2023-08-17T12:21:44.390Z,92.75
2023-08-17T12:23:47.020Z,92.68
2023-08-17T12:25:57.141Z,98.40
2023-08-17T12:28:00.964Z,103.45
2023-08-17T12:30:03.887Z,100.65
2023-08-17T12:32:08.440Z,102.10
2023-08-17T12:34:10.884Z,97.40
2023-08-17T12:36:13.418Z,71.97
2023-08-17T12:38:15.882Z,86.68
2023-08-17T12:40:19.180Z,100.25
2023-08-17T12:42:24.344Z,88.28
2023-08-17T12:44:26.795Z,78.10
2023-08-17T12:46:32.631Z,79.95
2023-08-17T12:48:36.741Z,74.50
2023-08-17T12:50:43.540Z,59.95
2023-08-17T12:52:47.670Z,90.35
2023-08-17T12:54:52.794Z,85.60
2023-08-17T12:56:58.899Z,84.28
2023-08-17T12:59:04.959Z,91.38
2023-08-17T13:01:07.419Z,87.20
2023-08-17T13:03:10.265Z,89.07
2023-08-17T13:05:14.962Z,96.50
2023-08-17T13:07:17.950Z,100.93
2023-08-17T13:09:22.559Z,86.65
2023-08-17T13:11:25.086Z,89.30
2023-08-17T13:13:27.564Z,84.70
2023-08-17T13:15:34.241Z,82.80
2023-08-17T13:17:36.759Z,91.63
2023-08-17T13:19:39.329Z,82.97
2023-08-17T13:21:41.893Z,77.55
2023-08-17T13:23:44.416Z,77.45
2023-08-17T13:25:49.569Z,79.60
2023-08-17T13:27:52.091Z,64.60
2023-08-17T13:29:54.631Z,79.68
2023-08-17T13:31:59.793Z,87.03
2023-08-17T13:34:02.289Z,71.35
2023-08-17T13:36:05.188Z,75.03
2023-08-17T13:38:07.696Z,95.60
2023-08-17T13:40:11.531Z,92.38
2023-08-17T13:42:15.618Z,79.13
2023-08-17T13:44:18.089Z,83.93
2023-08-17T13:46:21.828Z,71.07
2023-08-17T13:48:26.959Z,85.50
2023-08-17T13:50:29.389Z,84.55
2023-08-17T13:52:31.872Z,71.75
2023-08-17T13:54:34.334Z,80.85
2023-08-17T13:56:36.911Z,90.20
2023-08-17T13:58:39.309Z,79.47
2023-08-17T14:00:41.832Z,82.47
2023-08-17T14:02:44.342Z,63.50
2023-08-17T14:04:49.536Z,84.47
2023-08-17T14:06:53.413Z,89.00
2023-08-17T14:08:56.692Z,87.50
2023-08-17T14:11:01.591Z,75.13
2023-08-17T14:13:04.521Z,87.93
2023-08-17T14:15:08.443Z,68.82
2023-08-17T14:17:11.129Z,65.82
2023-08-17T14:19:13.711Z,80.78
2023-08-17T14:21:19.115Z,92.43
2023-08-17T14:23:21.633Z,90.22
2023-08-17T14:25:24.240Z,95.20
2023-08-17T14:27:26.674Z,84.82
2023-08-17T14:29:29.082Z,83.65
2023-08-17T14:31:31.591Z,93.63
2023-08-17T14:33:34.126Z,89.40
2023-08-17T14:35:36.670Z,81.15
2023-08-17T14:37:41.640Z,90.22
2023-08-17T14:39:44.139Z,70.00
2023-08-17T14:41:47.064Z,69.50
2023-08-17T14:43:50.349Z,64.78
2023-08-17T14:45:52.802Z,88.75
2023-08-17T14:47:55.905Z,90.45
2023-08-17T14:49:58.407Z,88.53
2023-08-17T14:52:00.901Z,107.47
2023-08-17T14:54:06.395Z,106.35
2023-08-17T14:56:08.873Z,96.55
2023-08-17T14:58:11.365Z,107.00
2023-08-17T15:00:18.027Z,70.70
2023-08-17T15:02:21.498Z,71.03
2023-08-17T15:04:26.208Z,91.93
2023-08-17T15:06:34.101Z,118.35
2023-08-17T15:08:37.416Z,69.88
2023-08-17T15:10:42.512Z,74.72
2023-08-17T15:12:45.008Z,78.85
2023-08-17T15:14:47.569Z,71.30
2023-08-17T15:16:50.028Z,97.82
2023-08-17T15:18:52.555Z,61.25
2023-08-17T15:20:55.018Z,66.00
2023-08-17T15:22:57.466Z,84.10
2023-08-17T15:24:59.968Z,64.60
2023-08-17T15:27:05.274Z,67.05
2023-08-17T15:29:07.908Z,72.22
2023-08-17T15:31:14.511Z,67.30
2023-08-17T15:33:17.014Z,67.57
2023-08-17T15:35:19.779Z,66.32
2023-08-17T15:37:22.401Z,75.68
2023-08-17T15:39:25.107Z,67.85
2023-08-17T15:41:27.609Z,62.17
2023-08-17T15:43:32.728Z,66.60
2023-08-17T15:45:36.950Z,84.93
2023-08-17T15:47:39.553Z,70.05
2023-08-17T15:49:42.073Z,88.40
2023-08-17T15:51:44.539Z,80.13
2023-08-17T15:53:46.986Z,82.80
2023-08-17T15:55:49.397Z,108.05
2023-08-17T15:57:53.754Z,157.50
2023-08-17T15:59:59.014Z,126.05
2023-08-17T16:02:01.482Z,118.22
2023-08-17T16:04:04.075Z,102.47
2023-08-17T16:06:06.702Z,122.95
2023-08-17T16:08:09.305Z,98.65
2023-08-17T16:10:11.757Z,97.60
2023-08-17T16:12:14.263Z,112.22
2023-08-17T16:14:16.858Z,128.77
2023-08-17T16:16:22.090Z,152.85
2023-08-17T16:18:24.593Z,153.68
2023-08-17T16:20:30.782Z,170.25
2023-08-17T16:22:33.274Z,163.30
2023-08-17T16:24:35.673Z,169.35
2023-08-17T16:26:38.201Z,167.55
2023-08-17T16:28:40.758Z,149.68
2023-08-17T16:30:43.289Z,116.68
2023-08-17T16:32:48.411Z,177.93
2023-08-17T16:34:50.852Z,134.43
2023-08-17T16:36:53.227Z,197.73
2023-08-17T16:38:56.018Z,206.07
2023-08-17T16:40:58.511Z,172.07
2023-08-17T16:43:01.468Z,186.57
2023-08-17T16:47:13.031Z,178.55
2023-08-17T16:49:18.477Z,170.18
2023-08-17T16:51:20.918Z,186.60
2023-08-17T16:53:23.558Z,209.35
2023-08-17T16:55:26.130Z,212.27
2023-08-17T16:57:28.863Z,213.90
2023-08-17T16:59:31.555Z,217.40
2023-08-17T17:01:34.163Z,198.65
2023-08-17T17:03:36.753Z,205.43
2023-08-17T17:05:41.839Z,186.80
2023-08-17T17:07:44.279Z,187.23
2023-08-17T17:09:47.725Z,204.80
2023-08-17T17:11:50.230Z,234.23
2023-08-17T17:13:52.720Z,217.02
2023-08-17T17:15:55.330Z,223.48
2023-08-17T17:18:00.253Z,233.18
2023-08-17T17:20:03.174Z,209.95
2023-08-17T17:22:08.458Z,205.98
2023-08-17T17:24:11.263Z,187.25
2023-08-17T17:26:14.487Z,207.30
2023-08-17T17:28:16.995Z,179.07
2023-08-17T17:30:19.457Z,175.52
2023-08-17T17:32:21.947Z,207.25
2023-08-17T17:34:24.431Z,210.05
2023-08-17T17:36:26.957Z,233.52
2023-08-17T17:38:32.161Z,262.10
2023-08-17T17:40:34.604Z,268.85
2023-08-17T17:42:37.150Z,285.25
2023-08-17T17:44:39.616Z,272.35
2023-08-17T17:46:42.136Z,225.50
2023-08-17T17:48:45.422Z,233.93
2023-08-17T17:50:47.950Z,191.95
2023-08-17T17:52:50.406Z,193.63
2023-08-17T17:54:55.782Z,155.60
2023-08-17T17:56:59.545Z,177.27
2023-08-17T17:59:01.955Z,191.82
2023-08-17T18:01:04.545Z,235.70
2023-08-17T18:03:11.968Z,207.73
2023-08-17T18:05:14.466Z,218.23
2023-08-17T18:07:16.964Z,208.38
2023-08-17T18:09:19.461Z,185.20
2023-08-17T18:11:24.636Z,240.63
2023-08-17T18:13:27.279Z,223.30
2023-08-17T18:15:29.818Z,156.63
2023-08-17T18:17:32.610Z,229.50
2023-08-17T18:19:35.465Z,172.15
2023-08-17T18:21:38.123Z,209.20
2023-08-17T18:23:40.685Z,169.70
2023-08-17T18:25:46.494Z,213.75
2023-08-17T18:27:51.767Z,207.48
2023-08-17T18:29:54.527Z,253.88
2023-08-17T18:31:57.289Z,246.30
2023-08-17T18:33:59.991Z,257.05
2023-08-17T18:36:02.916Z,309.38
2023-08-17T18:38:05.921Z,300.70
2023-08-17T18:40:11.053Z,276.17
2023-08-17T18:42:14.727Z,290.95
2023-08-17T18:44:20.233Z,321.98
2023-08-17T18:46:23.168Z,324.75
2023-08-17T18:48:25.903Z,319.88
2023-08-17T18:50:31.218Z,322.27
2023-08-17T18:52:34.095Z,300.52
2023-08-17T18:54:36.981Z,313.45
2023-08-17T18:56:40.334Z,323.02
2023-08-17T18:58:43.209Z,316.90
2023-08-17T19:00:49.002Z,297.55
2023-08-17T19:02:51.761Z,337.58
2023-08-17T19:04:54.279Z,324.58
2023-08-17T19:07:18.199Z,281.58
2023-08-17T19:09:20.933Z,280.77
2023-08-17T19:11:23.657Z,309.75
2023-08-17T19:13:26.670Z,297.23
2023-08-17T19:15:29.637Z,330.30
2023-08-17T19:17:35.174Z,293.17
2023-08-17T19:19:37.914Z,213.77
2023-08-17T19:21:40.437Z,285.98
2023-08-17T19:23:43.342Z,224.40
2023-08-17T19:25:46.775Z,280.33
2023-08-17T19:27:49.711Z,316.98
2023-08-17T19:29:52.803Z,254.07
2023-08-17T19:31:55.408Z,305.83
2023-08-17T19:34:01.469Z,345.38
2023-08-17T19:36:05.814Z,360.83
2023-08-17T19:38:08.714Z,343.95
2023-08-17T19:40:12.274Z,370.48
2023-08-17T19:42:15.233Z,368.10
2023-08-17T19:44:18.391Z,360.05
2023-08-17T19:46:20.985Z,370.23
2023-08-17T19:48:23.704Z,362.13
2023-08-17T19:50:29.163Z,339.45
2023-08-17T19:52:34.172Z,352.48
2023-08-17T19:54:36.840Z,349.30
2023-08-17T19:56:40.026Z,349.23
2023-08-17T19:58:42.914Z,325.83
2023-08-17T20:00:45.448Z,325.92
2023-08-17T20:02:48.386Z,325.90
2023-08-17T20:04:51.505Z,317.80
2023-08-17T20:06:57.329Z,303.70
2023-08-17T20:09:00.025Z,311.50
2023-08-17T20:11:09.146Z,324.27
2023-08-17T20:13:11.978Z,307.48
2023-08-17T20:15:14.525Z,316.20
2023-08-17T20:17:17.938Z,285.10
2023-08-17T20:19:20.964Z,320.45
2023-08-17T20:21:23.533Z,322.00
2023-08-17T20:23:29.372Z,311.75
2023-08-17T20:25:31.863Z,274.85
2023-08-17T20:27:34.655Z,313.27
2023-08-17T20:29:38.833Z,305.40
2023-08-17T20:33:44.163Z,293.70
2023-08-17T20:35:51.613Z,322.95
2023-08-17T20:37:54.264Z,310.23
2023-08-17T20:39:59.545Z,327.15
2023-08-17T20:42:08.747Z,321.20
2023-08-17T20:44:11.624Z,315.33
2023-08-17T20:46:14.778Z,316.65
2023-08-17T20:48:17.390Z,343.33
2023-08-17T20:50:20.154Z,350.50
2023-08-17T20:52:22.893Z,332.42
2023-08-17T20:54:26.237Z,335.42
2023-08-17T20:56:31.417Z,327.45
2023-08-17T20:58:34.276Z,350.55
2023-08-17T21:00:37.055Z,325.75
2023-08-17T21:02:39.608Z,334.23
2023-08-17T21:04:42.168Z,347.45
2023-08-17T21:06:44.709Z,333.40
2023-08-17T21:08:47.177Z,354.33
2023-08-17T21:10:49.782Z,331.33
2023-08-17T21:12:54.986Z,337.17
2023-08-17T21:14:58.787Z,318.50
2023-08-17T21:17:01.300Z,323.15
2023-08-17T21:19:03.876Z,320.73
2023-08-17T21:21:06.450Z,316.65
2023-08-17T21:23:08.914Z,309.92
2023-08-17T21:25:11.648Z,260.33
2023-08-17T21:27:14.228Z,146.95
2023-08-17T21:29:19.348Z,112.63
2023-08-17T21:31:21.855Z,110.28
2023-08-17T21:33:24.373Z,102.28
2023-08-17T21:35:26.802Z,105.55
2023-08-17T21:37:30.106Z,124.40
2023-08-17T21:39:32.874Z,162.95
2023-08-17T21:41:35.440Z,116.55
2023-08-17T21:43:37.938Z,160.65
2023-08-17T21:45:43.075Z,149.65
2023-08-17T21:47:45.567Z,165.23
2023-08-17T21:49:48.689Z,176.85
2023-08-17T21:51:51.242Z,185.20
2023-08-17T21:53:53.700Z,146.27
2023-08-17T21:55:56.962Z,181.93
2023-08-17T21:57:59.433Z,194.63
2023-08-17T22:00:01.986Z,132.85
2023-08-17T22:02:11.097Z,162.48
2023-08-17T22:04:13.816Z,194.65
2023-08-17T22:06:16.806Z,158.02
2023-08-17T22:08:19.362Z,134.18
2023-08-17T22:10:24.018Z,135.88
2023-08-17T22:12:26.562Z,172.55
2023-08-17T22:14:30.515Z,135.77
2023-08-17T22:16:33.108Z,180.23
2023-08-17T22:18:38.796Z,129.05
2023-08-17T22:20:41.433Z,243.48
2023-08-17T22:22:43.979Z,134.30
2023-08-17T22:24:51.645Z,121.78
2023-08-17T22:26:54.750Z,115.15
2023-08-17T22:28:57.209Z,108.97
2023-08-17T22:31:05.950Z,106.28
2023-08-17T22:33:08.612Z,98.32
2023-08-17T22:35:13.861Z,101.85
2023-08-17T22:37:16.548Z,107.55
2023-08-17T22:39:19.028Z,103.60
2023-08-17T22:41:21.541Z,99.22
2023-08-17T22:43:24.106Z,106.60
2023-08-17T22:45:26.700Z,94.72
2023-08-17T22:47:29.350Z,104.93
2023-08-17T22:49:32.085Z,193.15
2023-08-17T22:51:37.213Z,122.20
2023-08-17T22:53:39.715Z,136.88
2023-08-17T22:55:42.148Z,195.65
2023-08-17T22:57:45.364Z,170.40
2023-08-17T22:59:47.792Z,166.80
2023-08-17T23:01:50.557Z,198.32
2023-08-17T23:03:53.146Z,226.82
2023-08-17T23:05:55.749Z,248.35
2023-08-17T23:08:01.222Z,314.08
2023-08-17T23:10:04.142Z,294.58
2023-08-17T23:12:07.799Z,243.27
2023-08-17T23:14:10.225Z,311.15
2023-08-17T23:16:12.658Z,306.42
2023-08-17T23:18:15.318Z,325.45
2023-08-17T23:20:18.045Z,325.67
2023-08-17T23:22:20.560Z,263.50
2023-08-17T23:24:25.692Z,331.23
2023-08-17T23:26:28.194Z,292.27
2023-08-17T23:28:32.067Z,346.30
2023-08-17T23:30:39.036Z,361.38
2023-08-17T23:32:41.484Z,329.95
2023-08-17T23:34:44.376Z,404.50
2023-08-17T23:36:46.864Z,368.85
2023-08-17T23:38:49.383Z,394.95
2023-08-17T23:40:54.502Z,344.52
2023-08-17T23:42:57.034Z,344.45
2023-08-17T23:44:59.546Z,343.92
2023-08-17T23:47:02.652Z,342.88
2023-08-17T23:49:05.553Z,370.70
2023-08-17T23:51:08.048Z,341.98
2023-08-17T23:53:11.188Z,318.92
2023-08-17T23:55:13.882Z,357.60
2023-08-17T23:57:18.970Z,348.20
2023-08-17T23:59:23.920Z,359.83
